Terminal Aerodrome Forecast
Issued by NWS King Salmon, AK

Home | Current Version | Previous Version | Text Only | Print | Product List | Glossary On
Versions: 1 2 3 4 5 6 7 8 9 10 11 12 13 14 15 16 17 18 19 20 21 22 23 24 25 26 27 28 29 30 31 32 33 34 35 36 37 38 39 40 41 42 43 44 45
000
FTAK31 PANC 050537
TAFAKN
TAF
PAKN 050537Z 0506/0606 17015KT P6SM SCT025 BKN050
      TEMPO 0506/0509 17015G25KT
     FM050900 15011KT P6SM BKN025 OVC060
     FM051200 11009KT P6SM VCFG SCT008 BKN025 OVC050
     FM051800 10015G22KT P6SM SCT040 OVC080
     FM052200 10020G30KT P6SM VCSH SCT040 OVC080=

USA.gov is the U.S. government's official web portal to all federal, state and local government web resources and services.